createdAt,value
2022-09-27T00:01:54.705Z,9.30
2022-09-27T00:04:21.154Z,9.38
2022-09-27T00:06:47.467Z,9.29
2022-09-27T00:09:13.855Z,9.36
2022-09-27T00:11:44.614Z,9.33
2022-09-27T00:14:13.234Z,9.33
2022-09-27T00:16:41.871Z,9.35
2022-09-27T00:19:14.740Z,9.46
2022-09-27T00:21:42.360Z,9.44
2022-09-27T00:24:13.289Z,9.45
2022-09-27T00:26:39.987Z,9.51
2022-09-27T00:29:07.089Z,9.40
2022-09-27T00:31:33.973Z,9.33
2022-09-27T00:34:02.796Z,9.29
2022-09-27T00:36:30.170Z,9.36
2022-09-27T00:38:56.870Z,9.40
2022-09-27T00:41:26.728Z,9.36
2022-09-27T00:44:01.793Z,9.38
2022-09-27T00:46:34.073Z,9.39
2022-09-27T00:49:27.728Z,9.36
2022-09-27T00:52:01.839Z,9.36
2022-09-27T00:54:30.385Z,9.36
2022-09-27T00:56:58.470Z,9.36
2022-09-27T00:59:34.053Z,9.38
2022-09-27T01:02:01.801Z,9.35
2022-09-27T01:04:30.632Z,9.26
2022-09-27T01:06:57.012Z,9.30
2022-09-27T01:09:24.461Z,9.33
2022-09-27T01:12:18.805Z,9.19
2022-09-27T01:15:01.728Z,9.27
2022-09-27T01:17:39.887Z,9.27
2022-09-27T01:20:31.221Z,9.34
2022-09-27T01:23:09.723Z,9.30
2022-09-27T01:25:44.839Z,9.23
2022-09-27T01:28:30.053Z,9.29
2022-09-27T01:31:35.289Z,9.30
2022-09-27T01:34:19.082Z,9.31
2022-09-27T01:37:07.007Z,9.34
2022-09-27T01:40:07.064Z,9.30
2022-09-27T01:42:39.364Z,9.37
2022-09-27T01:45:11.653Z,9.34
2022-09-27T01:47:49.835Z,9.28
2022-09-27T01:50:22.060Z,9.36
2022-09-27T01:52:56.795Z,9.38
2022-09-27T01:55:28.550Z,9.40
2022-09-27T01:58:04.857Z,9.39
2022-09-27T02:00:31.748Z,9.45
2022-09-27T02:03:05.269Z,9.49
2022-09-27T02:05:40.608Z,9.46
2022-09-27T02:08:15.359Z,9.42
2022-09-27T02:10:45.126Z,9.41
2022-09-27T02:13:22.744Z,9.49
2022-09-27T02:15:56.573Z,9.42
2022-09-27T02:18:36.626Z,9.41
2022-09-27T02:21:07.625Z,9.45
2022-09-27T02:23:43.869Z,9.43
2022-09-27T02:26:17.644Z,9.45
2022-09-27T02:28:53.090Z,9.49
2022-09-27T02:31:20.249Z,9.50
2022-09-27T02:33:55.220Z,9.48
2022-09-27T02:36:22.599Z,9.48
2022-09-27T02:38:49.471Z,9.53
2022-09-27T02:41:18.647Z,9.51
2022-09-27T02:43:49.907Z,9.47
2022-09-27T02:46:42.143Z,9.50
2022-09-27T02:49:42.395Z,9.49
2022-09-27T02:52:28.621Z,9.48
2022-09-27T02:55:15.195Z,9.46
2022-09-27T02:58:03.476Z,9.36
2022-09-27T03:00:54.715Z,9.45
2022-09-27T03:03:35.352Z,9.42
2022-09-27T03:06:06.486Z,9.42
2022-09-27T03:08:33.271Z,9.48
2022-09-27T03:10:59.662Z,9.43
2022-09-27T03:13:26.977Z,9.41
2022-09-27T03:15:53.311Z,9.45
2022-09-27T03:18:20.009Z,9.43
2022-09-27T03:20:46.420Z,9.41
2022-09-27T03:23:13.239Z,9.53
2022-09-27T03:25:41.049Z,9.50
2022-09-27T03:28:07.603Z,9.54
2022-09-27T03:30:34.117Z,9.54
2022-09-27T03:33:00.471Z,9.50
2022-09-27T03:35:26.979Z,9.52
2022-09-27T03:37:53.396Z,9.50
2022-09-27T03:40:19.873Z,9.47
2022-09-27T03:42:49.591Z,9.51
2022-09-27T03:45:16.596Z,9.56
2022-09-27T03:47:43.060Z,9.54
2022-09-27T03:50:11.528Z,9.64
2022-09-27T03:52:38.296Z,9.62
2022-09-27T03:55:05.383Z,9.59
2022-09-27T03:57:31.937Z,9.61
2022-09-27T03:59:59.766Z,9.57
2022-09-27T04:02:27.465Z,9.49
2022-09-27T04:04:53.916Z,9.54
2022-09-27T04:07:20.720Z,9.63
2022-09-27T04:09:47.109Z,9.70
2022-09-27T04:12:13.812Z,9.73
2022-09-27T04:14:40.194Z,9.65
2022-09-27T04:17:07.104Z,9.58
2022-09-27T04:19:33.493Z,9.52
2022-09-27T04:21:59.876Z,9.56
2022-09-27T04:24:26.234Z,9.59
2022-09-27T04:26:52.953Z,9.58
2022-09-27T04:29:19.373Z,9.61
2022-09-27T04:31:45.740Z,9.65
2022-09-27T04:34:12.092Z,9.63
2022-09-27T04:36:38.586Z,9.58
2022-09-27T04:39:08.815Z,9.63
2022-09-27T04:41:35.920Z,9.65
2022-09-27T04:44:02.651Z,9.61
2022-09-27T04:46:32.814Z,9.65
2022-09-27T04:49:00.285Z,9.63
2022-09-27T04:51:27.503Z,9.61
2022-09-27T04:53:55.272Z,9.67
2022-09-27T04:56:21.624Z,9.66
2022-09-27T04:58:47.961Z,9.59
2022-09-27T05:01:14.637Z,9.54
2022-09-27T05:03:41.996Z,9.58
2022-09-27T05:06:08.341Z,9.69
2022-09-27T05:08:34.685Z,9.75
2022-09-27T05:11:01.380Z,9.68
2022-09-27T05:13:27.863Z,9.58
2022-09-27T05:15:54.260Z,9.59
2022-09-27T05:18:20.786Z,9.65
2022-09-27T05:20:47.133Z,9.65
2022-09-27T05:23:13.523Z,9.69
2022-09-27T05:25:39.862Z,9.69
2022-09-27T05:28:06.283Z,9.69
2022-09-27T05:30:32.728Z,9.68
2022-09-27T05:32:59.162Z,9.66
2022-09-27T05:35:26.061Z,9.64
2022-09-27T05:38:00.165Z,9.61
2022-09-27T05:40:40.703Z,9.71
2022-09-27T05:43:08.093Z,9.69
2022-09-27T05:45:34.886Z,9.70
2022-09-27T05:48:01.905Z,9.68
2022-09-27T05:50:28.376Z,9.68
2022-09-27T05:52:54.847Z,9.74
2022-09-27T05:55:21.910Z,9.78
2022-09-27T05:58:03.184Z,9.77
2022-09-27T06:00:29.918Z,9.74
2022-09-27T06:02:58.806Z,9.75
2022-09-27T06:05:27.748Z,9.79
2022-09-27T06:08:16.498Z,9.86
2022-09-27T06:10:42.871Z,9.81
2022-09-27T06:13:14.291Z,9.81
2022-09-27T06:15:42.780Z,9.85
2022-09-27T06:18:16.031Z,9.81
2022-09-27T06:20:42.967Z,9.80
2022-09-27T06:23:15.235Z,9.80
2022-09-27T06:25:42.068Z,9.78
2022-09-27T06:28:09.772Z,9.76
2022-09-27T06:30:40.532Z,9.70
2022-09-27T06:33:09.512Z,9.69
2022-09-27T06:35:36.386Z,9.69
2022-09-27T06:38:09.091Z,9.66
2022-09-27T06:40:36.405Z,9.73
2022-09-27T06:43:10.846Z,9.77
2022-09-27T06:45:38.124Z,9.79
2022-09-27T06:48:06.023Z,9.82
2022-09-27T06:50:37.281Z,9.78
2022-09-27T06:53:08.361Z,9.80
2022-09-27T06:55:34.907Z,9.91
2022-09-27T06:58:20.688Z,9.97
2022-09-27T07:00:52.330Z,10.01
2022-09-27T07:03:22.826Z,10.03
2022-09-27T07:06:00.661Z,10.05
2022-09-27T07:08:28.802Z,10.09
2022-09-27T07:11:02.590Z,10.10
2022-09-27T07:13:32.534Z,10.14
2022-09-27T07:15:58.947Z,10.16
2022-09-27T07:18:25.314Z,10.12
2022-09-27T07:20:51.653Z,10.06
2022-09-27T07:23:18.077Z,10.07
2022-09-27T07:25:44.523Z,10.12
2022-09-27T07:28:19.624Z,10.07
2022-09-27T07:30:48.152Z,10.08
2022-09-27T07:33:14.799Z,10.13
2022-09-27T07:35:43.604Z,10.15
2022-09-27T07:38:13.854Z,10.14
2022-09-27T07:40:41.102Z,10.08
2022-09-27T07:43:09.264Z,10.00
2022-09-27T07:45:36.650Z,9.99
2022-09-27T07:48:13.018Z,9.90
2022-09-27T07:50:39.368Z,9.99
2022-09-27T07:53:05.842Z,10.02
2022-09-27T07:55:32.317Z,10.11
2022-09-27T07:58:07.527Z,10.12
2022-09-27T08:00:34.375Z,10.14
2022-09-27T08:03:08.749Z,10.22
2022-09-27T08:05:36.431Z,10.27
2022-09-27T08:08:04.310Z,10.26
2022-09-27T08:10:31.865Z,10.16
2022-09-27T08:13:01.058Z,10.20
2022-09-27T08:15:28.497Z,10.26
2022-09-27T08:17:55.221Z,10.28
2022-09-27T08:20:21.845Z,10.18
2022-09-27T08:22:48.368Z,10.27
2022-09-27T08:25:14.794Z,10.20
2022-09-27T08:27:42.130Z,10.11
2022-09-27T08:30:09.091Z,10.04
2022-09-27T08:32:37.128Z,9.98
2022-09-27T08:35:03.802Z,9.93
2022-09-27T08:37:30.159Z,10.00
2022-09-27T08:39:56.507Z,10.03
2022-09-27T08:42:47.025Z,9.86
2022-09-27T08:45:22.696Z,9.79
2022-09-27T08:47:54.999Z,9.86
2022-09-27T08:50:27.359Z,9.86
2022-09-27T08:53:14.808Z,9.91
2022-09-27T08:55:50.372Z,10.00
2022-09-27T08:58:25.933Z,10.02
2022-09-27T09:01:14.759Z,10.10
2022-09-27T09:03:50.970Z,10.07
2022-09-27T09:06:34.585Z,10.04
2022-09-27T09:09:39.332Z,10.11
2022-09-27T09:12:47.760Z,10.16
2022-09-27T09:15:55.595Z,10.06
2022-09-27T09:18:46.440Z,10.06
2022-09-27T09:21:43.746Z,10.09
2022-09-27T09:24:33.591Z,10.23
2022-09-27T09:27:21.690Z,10.22
2022-09-27T09:30:25.032Z,10.32
2022-09-27T09:33:05.347Z,10.15
2022-09-27T09:36:00.249Z,10.09
2022-09-27T09:38:50.575Z,10.08
2022-09-27T09:41:43.684Z,10.00
2022-09-27T09:44:21.374Z,10.02
2022-09-27T09:46:56.109Z,10.08
2022-09-27T09:49:45.308Z,10.17
2022-09-27T09:52:17.949Z,10.30
2022-09-27T09:54:54.836Z,10.30
2022-09-27T09:57:40.907Z,10.22
2022-09-27T10:00:18.716Z,10.23
2022-09-27T10:02:47.734Z,10.23
2022-09-27T10:05:18.041Z,10.29
2022-09-27T10:07:45.351Z,10.27
2022-09-27T10:10:15.731Z,10.13
2022-09-27T10:12:43.043Z,10.10
2022-09-27T10:15:38.827Z,9.92
2022-09-27T10:18:05.341Z,9.91
2022-09-27T10:20:50.376Z,9.96
2022-09-27T10:23:21.081Z,9.99
2022-09-27T10:25:54.970Z,9.97
2022-09-27T10:28:39.681Z,9.80
2022-09-27T10:31:08.823Z,9.75
2022-09-27T10:33:38.200Z,9.85
2022-09-27T10:36:05.025Z,9.87
2022-09-27T10:38:36.545Z,9.83
2022-09-27T10:41:26.431Z,9.71
2022-09-27T10:43:52.834Z,9.78
2022-09-27T10:46:26.811Z,9.74
2022-09-27T10:49:25.263Z,9.86
2022-09-27T10:52:18.615Z,9.86
2022-09-27T10:55:18.704Z,9.73
2022-09-27T10:57:50.589Z,9.73
2022-09-27T11:00:23.708Z,9.69
2022-09-27T11:02:56.686Z,9.72
2022-09-27T11:05:23.529Z,9.56
2022-09-27T11:07:59.075Z,9.57
2022-09-27T11:10:37.165Z,9.56
2022-09-27T11:13:14.175Z,9.62
2022-09-27T11:16:06.915Z,9.56
2022-09-27T11:19:04.454Z,9.55
2022-09-27T11:22:42.213Z,9.51
2022-09-27T11:25:17.110Z,9.58
2022-09-27T11:28:00.267Z,9.61
2022-09-27T11:30:38.315Z,9.67
2022-09-27T11:33:26.019Z,9.61
2022-09-27T11:36:13.019Z,9.74
2022-09-27T11:39:09.778Z,9.74
2022-09-27T11:41:57.740Z,9.77
2022-09-27T11:45:03.044Z,9.86
2022-09-27T11:47:37.815Z,9.90
2022-09-27T11:50:28.347Z,10.08
2022-09-27T11:53:24.914Z,10.25
2022-09-27T11:56:11.218Z,10.18
2022-09-27T11:59:08.703Z,10.18
2022-09-27T12:01:54.452Z,10.01
2022-09-27T12:04:39.971Z,10.22
2022-09-27T12:07:59.581Z,10.33
2022-09-27T12:10:26.064Z,10.38
2022-09-27T12:12:55.969Z,10.45
2022-09-27T12:15:26.069Z,10.44
2022-09-27T12:17:58.463Z,10.39
2022-09-27T12:20:30.983Z,10.48
2022-09-27T12:23:02.367Z,10.38
2022-09-27T12:25:31.931Z,10.47
2022-09-27T12:28:08.635Z,10.62
2022-09-27T12:30:41.384Z,10.59
2022-09-27T12:33:17.513Z,10.71
2022-09-27T12:35:53.156Z,10.67
2022-09-27T12:38:44.097Z,10.54
2022-09-27T12:41:14.221Z,10.65
2022-09-27T12:43:48.745Z,10.82
2022-09-27T12:46:34.726Z,10.96
2022-09-27T12:49:19.968Z,11.03
2022-09-27T12:51:54.692Z,11.05
2022-09-27T12:54:42.159Z,11.03
2022-09-27T12:57:18.495Z,10.96
2022-09-27T13:00:10.467Z,11.01
2022-09-27T13:03:03.997Z,11.32
2022-09-27T13:06:20.367Z,11.01
2022-09-27T13:08:53.866Z,11.17
2022-09-27T13:11:49.354Z,11.15
2022-09-27T13:14:21.508Z,10.99
2022-09-27T13:16:49.211Z,10.86
2022-09-27T13:19:45.525Z,10.76
2022-09-27T13:22:23.945Z,10.86
2022-09-27T13:24:50.999Z,10.91
2022-09-27T13:27:23.543Z,10.83
2022-09-27T13:29:51.253Z,10.91
2022-09-27T13:32:23.125Z,11.01
2022-09-27T13:35:10.331Z,10.94
2022-09-27T13:37:45.958Z,10.91
2022-09-27T13:40:18.335Z,11.03
2022-09-27T13:42:49.517Z,10.97
2022-09-27T13:45:22.304Z,10.88
2022-09-27T13:47:50.191Z,10.98
2022-09-27T13:50:24.682Z,10.85
2022-09-27T13:53:16.049Z,10.81
2022-09-27T13:55:47.912Z,10.61
2022-09-27T13:58:52.484Z,10.56
2022-09-27T14:01:28.348Z,10.65
2022-09-27T14:04:36.664Z,10.75
2022-09-27T14:07:04.503Z,10.83
2022-09-27T14:09:34.298Z,10.81
2022-09-27T14:12:03.769Z,10.86
2022-09-27T14:14:32.893Z,10.90
2022-09-27T14:17:00.381Z,11.01
2022-09-27T14:19:28.840Z,11.08
2022-09-27T14:22:27.562Z,11.08
2022-09-27T14:24:55.585Z,11.12
2022-09-27T14:27:22.897Z,11.15
2022-09-27T14:30:00.811Z,11.11
2022-09-27T14:32:32.149Z,11.02
2022-09-27T14:35:35.735Z,11.11
2022-09-27T14:38:26.332Z,11.08
2022-09-27T14:41:02.390Z,10.99
2022-09-27T14:43:30.312Z,10.86
2022-09-27T14:46:02.671Z,10.78
2022-09-27T14:48:32.150Z,10.69
2022-09-27T14:51:19.219Z,10.52
2022-09-27T14:53:53.461Z,10.46
2022-09-27T14:56:22.985Z,10.36
2022-09-27T14:59:02.194Z,10.23
2022-09-27T15:01:29.979Z,10.16
2022-09-27T15:04:03.281Z,10.09
2022-09-27T15:06:29.972Z,9.92
2022-09-27T15:08:56.520Z,9.92
2022-09-27T15:11:24.439Z,9.90
2022-09-27T15:13:52.861Z,9.92
2022-09-27T15:16:22.552Z,9.91
2022-09-27T15:19:00.335Z,9.92
2022-09-27T15:21:36.128Z,9.90
2022-09-27T15:24:03.523Z,9.87
2022-09-27T15:26:40.845Z,9.86
2022-09-27T15:29:17.793Z,9.93
2022-09-27T15:31:44.290Z,9.88
2022-09-27T15:34:18.776Z,9.90
2022-09-27T15:37:00.877Z,9.98
2022-09-27T15:39:32.260Z,9.99
2022-09-27T15:42:05.011Z,9.86
2022-09-27T15:44:57.764Z,9.87
2022-09-27T15:47:37.475Z,9.80
2022-09-27T15:50:16.024Z,9.86
2022-09-27T15:52:45.216Z,9.89
2022-09-27T15:55:12.713Z,9.85
2022-09-27T15:57:39.742Z,9.93
2022-09-27T16:00:16.692Z,9.94
2022-09-27T16:02:43.411Z,10.03
2022-09-27T16:05:09.847Z,9.98
2022-09-27T16:07:36.228Z,9.92
2022-09-27T16:10:16.597Z,9.89
2022-09-27T16:12:44.517Z,9.93
2022-09-27T16:15:12.324Z,9.93
2022-09-27T16:17:39.232Z,9.92
2022-09-27T16:20:06.406Z,9.86
2022-09-27T16:22:33.109Z,9.83
2022-09-27T16:24:59.472Z,9.78
2022-09-27T16:27:27.275Z,9.79
2022-09-27T16:29:54.394Z,9.72
2022-09-27T16:32:21.483Z,9.68
2022-09-27T16:34:47.796Z,9.71
2022-09-27T16:37:14.875Z,9.64
2022-09-27T16:39:41.278Z,9.54
2022-09-27T16:42:08.443Z,9.51
2022-09-27T16:44:35.901Z,9.45
2022-09-27T16:47:03.871Z,9.50
2022-09-27T16:49:49.343Z,9.46
2022-09-27T16:52:16.104Z,9.43
2022-09-27T16:54:42.602Z,9.42
2022-09-27T16:57:09.623Z,9.37
2022-09-27T16:59:36.536Z,9.34
2022-09-27T17:02:05.273Z,9.27
2022-09-27T17:04:32.200Z,9.27
2022-09-27T17:06:58.561Z,9.23
2022-09-27T17:09:25.029Z,9.26
2022-09-27T17:11:51.484Z,9.25
2022-09-27T17:14:18.062Z,9.27
2022-09-27T17:16:46.019Z,9.16
2022-09-27T17:19:16.771Z,9.04
2022-09-27T17:21:45.952Z,9.04
2022-09-27T17:24:12.770Z,8.97
2022-09-27T17:26:39.729Z,8.91
2022-09-27T17:29:07.810Z,8.82
2022-09-27T17:31:37.051Z,8.83
2022-09-27T17:34:03.852Z,8.78
2022-09-27T17:36:37.387Z,8.68
2022-09-27T17:39:04.552Z,8.69
2022-09-27T17:41:37.597Z,8.71
2022-09-27T17:44:07.143Z,8.72
2022-09-27T17:46:37.060Z,8.78
2022-09-27T17:49:25.166Z,8.81
2022-09-27T17:51:53.314Z,8.80
2022-09-27T17:54:26.089Z,8.82
2022-09-27T17:56:52.459Z,8.83
2022-09-27T17:59:18.851Z,8.87
2022-09-27T18:01:47.576Z,8.90
2022-09-27T18:04:17.182Z,8.89
2022-09-27T18:06:46.442Z,8.87
2022-09-27T18:09:15.138Z,8.88
2022-09-27T18:11:41.615Z,8.85
2022-09-27T18:14:08.424Z,8.76
2022-09-27T18:16:39.383Z,8.70
2022-09-27T18:19:07.782Z,8.76
2022-09-27T18:21:34.608Z,8.81
2022-09-27T18:24:06.167Z,8.78
2022-09-27T18:26:36.376Z,8.84
2022-09-27T18:29:05.631Z,8.82
2022-09-27T18:31:32.055Z,8.83
2022-09-27T18:33:58.419Z,8.82
2022-09-27T18:36:26.800Z,8.86
2022-09-27T18:39:05.025Z,8.77
2022-09-27T18:41:34.262Z,8.80
2022-09-27T18:44:02.688Z,8.79
2022-09-27T18:46:36.293Z,8.80
2022-09-27T18:49:11.501Z,8.78
2022-09-27T18:51:42.159Z,8.79
2022-09-27T18:54:15.817Z,8.79
2022-09-27T18:56:42.683Z,8.69
2022-09-27T18:59:09.925Z,8.66
2022-09-27T19:01:43.186Z,8.67
2022-09-27T19:04:11.694Z,8.75
2022-09-27T19:06:38.994Z,8.76
2022-09-27T19:09:06.724Z,8.77
2022-09-27T19:11:33.997Z,8.73
2022-09-27T19:14:01.589Z,8.72
2022-09-27T19:16:29.485Z,8.70
2022-09-27T19:18:55.929Z,8.69
2022-09-27T19:21:25.147Z,8.70
2022-09-27T19:23:51.988Z,8.67
2022-09-27T19:26:21.378Z,8.66
2022-09-27T19:28:48.276Z,8.67
2022-09-27T19:31:20.948Z,8.64
2022-09-27T19:33:48.338Z,8.61
2022-09-27T19:36:17.126Z,8.65
2022-09-27T19:38:43.817Z,8.66
2022-09-27T19:41:12.794Z,8.65
2022-09-27T19:43:41.684Z,8.71
2022-09-27T19:46:17.196Z,8.64
2022-09-27T19:48:45.130Z,8.64
2022-09-27T19:51:30.856Z,8.59
2022-09-27T19:53:57.173Z,8.55
2022-09-27T19:56:24.371Z,8.43
2022-09-27T19:58:50.667Z,8.42
2022-09-27T20:01:25.057Z,8.42
2022-09-27T20:03:53.396Z,8.35
2022-09-27T20:06:21.614Z,8.36
2022-09-27T20:08:48.779Z,8.36
2022-09-27T20:11:18.063Z,8.34
2022-09-27T20:13:45.061Z,8.38
2022-09-27T20:16:15.675Z,8.36
2022-09-27T20:18:53.447Z,8.41
2022-09-27T20:21:22.138Z,8.40
2022-09-27T20:23:50.301Z,8.39
2022-09-27T20:26:18.802Z,8.37
2022-09-27T20:28:50.302Z,8.36
2022-09-27T20:31:23.104Z,8.38
2022-09-27T20:33:50.797Z,8.41
2022-09-27T20:36:29.052Z,8.36
2022-09-27T20:39:03.781Z,8.33
2022-09-27T20:41:36.128Z,8.37
2022-09-27T20:44:05.658Z,8.40
2022-09-27T20:46:33.060Z,8.35
2022-09-27T20:49:02.921Z,8.33
2022-09-27T20:51:34.020Z,8.26
2022-09-27T20:54:01.971Z,8.26
2022-09-27T20:56:33.669Z,8.26
2022-09-27T20:59:05.893Z,8.26
2022-09-27T21:01:32.762Z,8.27
2022-09-27T21:04:04.582Z,8.32
2022-09-27T21:06:32.611Z,8.33
2022-09-27T21:09:00.380Z,8.29
2022-09-27T21:11:27.568Z,8.38
2022-09-27T21:13:54.520Z,8.36
2022-09-27T21:16:24.348Z,8.40
2022-09-27T21:18:52.514Z,8.41
2022-09-27T21:21:20.379Z,8.32
2022-09-27T21:23:47.683Z,8.36
2022-09-27T21:26:16.825Z,8.34
2022-09-27T21:28:45.677Z,8.36
2022-09-27T21:31:22.325Z,8.42
2022-09-27T21:33:54.912Z,8.47
2022-09-27T21:36:23.296Z,8.45
2022-09-27T21:38:49.849Z,8.42
2022-09-27T21:41:17.192Z,8.38
2022-09-27T21:43:45.870Z,8.37
2022-09-27T21:46:13.796Z,8.35
2022-09-27T21:48:42.500Z,8.33
2022-09-27T21:51:23.374Z,8.33
2022-09-27T21:53:54.672Z,8.28
2022-09-27T21:56:22.334Z,8.34
2022-09-27T21:58:49.599Z,8.34
2022-09-27T22:01:18.783Z,8.32
2022-09-27T22:03:46.432Z,8.28
2022-09-27T22:06:15.895Z,8.34
2022-09-27T22:08:43.056Z,8.25
2022-09-27T22:11:12.873Z,8.34
2022-09-27T22:13:39.228Z,8.38
2022-09-27T22:16:07.119Z,8.39
2022-09-27T22:18:41.176Z,8.40
2022-09-27T22:21:10.160Z,8.44
2022-09-27T22:23:36.583Z,8.43
2022-09-27T22:26:17.440Z,8.39
2022-09-27T22:28:45.101Z,8.48
2022-09-27T22:31:14.966Z,8.49
2022-09-27T22:33:42.728Z,8.52
2022-09-27T22:36:09.183Z,8.46
2022-09-27T22:38:35.637Z,8.49
2022-09-27T22:41:02.325Z,8.49
2022-09-27T22:43:29.281Z,8.45
2022-09-27T22:45:56.778Z,8.33
2022-09-27T22:48:23.239Z,8.34
2022-09-27T22:50:49.596Z,8.37
2022-09-27T22:53:15.991Z,8.26
2022-09-27T22:55:42.368Z,8.28
2022-09-27T22:58:09.260Z,8.21
2022-09-27T23:00:37.953Z,8.19
2022-09-27T23:03:04.335Z,8.21
2022-09-27T23:05:30.642Z,8.14
2022-09-27T23:07:56.944Z,8.11
2022-09-27T23:10:23.320Z,8.14
2022-09-27T23:12:54.142Z,8.13
2022-09-27T23:15:20.556Z,8.07
2022-09-27T23:17:55.985Z,8.03
2022-09-27T23:20:23.493Z,7.98
2022-09-27T23:22:50.057Z,7.96
2022-09-27T23:25:16.617Z,7.93
2022-09-27T23:27:44.896Z,8.01
2022-09-27T23:30:21.682Z,8.06
2022-09-27T23:32:55.418Z,8.04
2022-09-27T23:35:22.822Z,8.02
2022-09-27T23:37:52.326Z,7.99
2022-09-27T23:40:18.658Z,8.03
2022-09-27T23:42:45.001Z,7.91
2022-09-27T23:45:11.373Z,7.92
2022-09-27T23:47:39.551Z,7.94
2022-09-27T23:50:06.698Z,7.84
2022-09-27T23:52:33.054Z,7.83
2022-09-27T23:54:59.359Z,7.88
2022-09-27T23:57:25.715Z,7.90
2022-09-27T23:59:52.019Z,7.95
